LXGB Informações do Aeroporto

Informações da Pista
Pista 09 Comprimento 6000 ft Largura 150 ft
Elevação 10 ft Limite 302 ft Heading 88
Pista 27 Comprimento 6000 ft Largura 150 ft
Elevação 11 ft Limite 368 ft Heading 268
Frequências do Aeroporto
Tipo A/D Nome APP Frequência 122.8 MHZ
Tipo OPS Nome GIB TALKDO Frequência 130.4 MHZ
Tipo TWR Nome TWR Frequência 131.2 MHZ
Navaids do Aeroporto
Tipo TACAN Nome Gibraltar Frequência 113600 KHZ
Informações meteorológicas do aeroporto e NOTAM
ADDS - METARS form results

(0246 UTC 22 September 2020)
Data provider http://aviationweather.gov/metar/data/
 
METAR text: LXGB 220150Z AUTO 23009KT 9999 // NCD 23/15 Q1015
Conditions at: LXGB (GIBRALTAR (CIV/M, GI) observed 0150 UTC 22 September 2020
Temperature: 23.0°C (73°F)
Dewpoint: 15.0°C (59°F) [RH = 61%]
Pressure (altimeter): 29.97 inches Hg (1015.0 mb)
Winds: from the SW (230 degrees) at 10 MPH (9 knots; 4.6 m/s)
Visibility: 6 or more miles (10+ km)
Ceiling: at least 12,000 feet AGL
Clouds: sky clear below 12,000 feet AGL
Weather: no significant weather observed at this time

Forecast for: LXGB (GIBRALTAR (CIV/M, GI)
Text: TAF LXGB 211748Z 2118/2123 VRB03KT CAVOK
Forecast period: 1800 to 2300 UTC 21 September 2020
Forecast type: FROM: standard forecast or significant change
Winds: variable direction winds at 3 MPH (3 knots; 1.5 m/s)
Visibility: 6 or more miles (10+ km)
Ceiling: unknown
Clouds: missing
Weather: NSW  (no significant weather)